SWA617 MYNN-KMCO
Flight info
| Callsign | SWA617 |
|---|---|
| Flight time | 0h 59m |
| Altitude | 22000 |
| Route | PEACH DCT CCLUB MUNGI1 |
| Aircraft | B737/M-SADE2E3GIJ4RWZ/LB1D1 |
Departure
| Time | 2026-05-04 10:59 |
|---|---|
| Airport | Lynden Pindling International Airport (MYNN) |
Arrival
| Time | 2026-05-04 11:59 |
|---|---|
| Airport | Orlando International Airport (KMCO) |
| Time | Latitude | Longitude | Altitude | Speed | Heading |
|---|---|---|---|---|---|
| 2026-05-04 10:32 | 25.05056 | -77.46846 | 16 ft | 0 kts | 347° |
| 2026-05-04 10:52 | 25.05040 | -77.46843 | 18 ft | 4 kts | 345° |
| 2026-05-04 10:54 | 25.05005 | -77.46812 | 19 ft | 2 kts | 246° |
| 2026-05-04 10:56 | 25.05002 | -77.46820 | 16 ft | 4 kts | 245° |
| 2026-05-04 10:56 | 25.04978 | -77.46877 | 17 ft | 12 kts | 245° |
| 2026-05-04 10:57 | 25.04987 | -77.46975 | 16 ft | 15 kts | 315° |
| 2026-05-04 10:57 | 25.05059 | -77.47057 | 16 ft | 14 kts | 305° |
| 2026-05-04 10:57 | 25.05035 | -77.47130 | 18 ft | 9 kts | 258° |
| 2026-05-04 10:57 | 25.05071 | -77.47190 | 17 ft | 11 kts | 314° |
| 2026-05-04 10:58 | 25.05129 | -77.47255 | 17 ft | 13 kts | 315° |
| 2026-05-04 10:58 | 25.05199 | -77.47335 | 17 ft | 15 kts | 308° |
| 2026-05-04 10:58 | 25.05213 | -77.47441 | 18 ft | 13 kts | 252° |
| 2026-05-04 10:58 | 25.05181 | -77.47516 | 22 ft | 9 kts | 220° |
| 2026-05-04 10:59 | 25.05117 | -77.47497 | 19 ft | 16 kts | 135° |
| 2026-05-04 10:59 | 25.04849 | -77.47200 | 18 ft | 95 kts | 135° |
| 2026-05-04 10:59 | 25.04215 | -77.46496 | 30 ft | 160 kts | 137° |
| 2026-05-04 10:59 | 25.03391 | -77.45586 | 676 ft | 171 kts | 138° |
| 2026-05-04 11:00 | 25.02545 | -77.44664 | 1553 ft | 170 kts | 138° |
| 2026-05-04 11:01 | 24.94537 | -77.42564 | 6821 ft | 217 kts | 235° |
| 2026-05-04 11:02 | 24.93653 | -77.43914 | 7898 ft | 218 kts | 237° |
| 2026-05-04 11:02 | 24.92767 | -77.45280 | 8982 ft | 220 kts | 237° |
| 2026-05-04 11:05 | 24.88480 | -77.70973 | 18605 ft | 359 kts | 284° |
| 2026-05-04 11:06 | 24.89542 | -77.73478 | 19295 ft | 367 kts | 301° |
| 2026-05-04 11:06 | 24.91294 | -77.75550 | 20026 ft | 376 kts | 316° |
| 2026-05-04 11:06 | 24.93548 | -77.77075 | 20685 ft | 389 kts | 333° |
| 2026-05-04 11:06 | 24.96183 | -77.77893 | 21373 ft | 396 kts | 342° |
| 2026-05-04 11:08 | 25.15505 | -77.82113 | 21996 ft | 406 kts | 342° |
| 2026-05-04 11:10 | 25.35073 | -77.84216 | 21989 ft | 436 kts | 23° |
| 2026-05-04 11:12 | 25.52710 | -77.86393 | 21990 ft | 390 kts | 313° |
| 2026-05-04 11:12 | 25.54741 | -77.88392 | 21984 ft | 391 kts | 313° |
| 2026-05-04 11:12 | 25.56771 | -77.90397 | 21986 ft | 391 kts | 313° |
| 2026-05-04 11:12 | 25.58803 | -77.92396 | 21988 ft | 391 kts | 313° |
| 2026-05-04 11:13 | 25.60849 | -77.94394 | 21992 ft | 392 kts | 313° |
| 2026-05-04 11:13 | 25.62897 | -77.96382 | 21995 ft | 391 kts | 314° |
| 2026-05-04 11:13 | 25.64948 | -77.98366 | 21987 ft | 391 kts | 314° |
| 2026-05-04 11:13 | 25.67004 | -78.00351 | 21996 ft | 391 kts | 314° |
| 2026-05-04 11:14 | 25.69055 | -78.02330 | 21989 ft | 390 kts | 313° |
| 2026-05-04 11:14 | 25.71102 | -78.04305 | 21991 ft | 390 kts | 313° |
| 2026-05-04 11:14 | 25.73149 | -78.06280 | 21997 ft | 390 kts | 313° |
| 2026-05-04 11:16 | 25.87446 | -78.20104 | 21990 ft | 390 kts | 313° |
| 2026-05-04 11:16 | 25.89489 | -78.22084 | 21995 ft | 390 kts | 313° |
| 2026-05-04 11:16 | 25.91535 | -78.24066 | 21995 ft | 390 kts | 313° |
| 2026-05-04 11:17 | 25.93582 | -78.26049 | 22002 ft | 390 kts | 313° |
| 2026-05-04 11:17 | 25.95627 | -78.28030 | 22002 ft | 391 kts | 313° |
| 2026-05-04 11:19 | 26.09936 | -78.41938 | 21997 ft | 390 kts | 313° |
| 2026-05-04 11:19 | 26.11981 | -78.43927 | 21991 ft | 390 kts | 312° |
| 2026-05-04 11:19 | 26.14022 | -78.45913 | 22003 ft | 390 kts | 312° |
| 2026-05-04 11:19 | 26.16063 | -78.47901 | 21991 ft | 390 kts | 312° |
| 2026-05-04 11:20 | 26.18104 | -78.49891 | 21998 ft | 390 kts | 312° |
| 2026-05-04 11:20 | 26.20143 | -78.51881 | 22002 ft | 390 kts | 312° |
| 2026-05-04 11:20 | 26.22186 | -78.53875 | 21996 ft | 390 kts | 312° |
| 2026-05-04 11:20 | 26.24225 | -78.55867 | 21993 ft | 390 kts | 312° |
| 2026-05-04 11:22 | 26.38466 | -78.69801 | 21928 ft | 390 kts | 313° |
| 2026-05-04 11:22 | 26.40495 | -78.71794 | 21978 ft | 388 kts | 313° |
| 2026-05-04 11:23 | 26.42519 | -78.73782 | 21988 ft | 388 kts | 313° |
| 2026-05-04 11:23 | 26.44544 | -78.75768 | 21987 ft | 388 kts | 313° |
| 2026-05-04 11:24 | 26.56710 | -78.87722 | 21993 ft | 388 kts | 313° |
| 2026-05-04 11:25 | 26.58733 | -78.89714 | 21994 ft | 388 kts | 313° |
| 2026-05-04 11:25 | 26.60756 | -78.91707 | 21994 ft | 388 kts | 313° |
| 2026-05-04 11:25 | 26.62777 | -78.93698 | 21994 ft | 388 kts | 313° |
| 2026-05-04 11:26 | 26.66818 | -78.97682 | 21994 ft | 387 kts | 312° |
| 2026-05-04 11:27 | 26.80866 | -79.11569 | 22004 ft | 385 kts | 312° |
| 2026-05-04 11:28 | 26.82872 | -79.13556 | 22006 ft | 385 kts | 312° |
| 2026-05-04 11:28 | 26.84880 | -79.15546 | 21995 ft | 385 kts | 312° |
| 2026-05-04 11:28 | 26.86887 | -79.17536 | 22002 ft | 386 kts | 312° |
| 2026-05-04 11:28 | 26.88895 | -79.19528 | 22001 ft | 385 kts | 312° |
| 2026-05-04 11:29 | 26.90905 | -79.21523 | 21999 ft | 385 kts | 312° |
| 2026-05-04 11:29 | 26.92909 | -79.23512 | 22004 ft | 385 kts | 312° |
| 2026-05-04 11:29 | 26.94912 | -79.25502 | 22018 ft | 384 kts | 312° |
| 2026-05-04 11:29 | 26.96912 | -79.27489 | 22008 ft | 384 kts | 312° |
| 2026-05-04 11:31 | 27.10919 | -79.41440 | 22019 ft | 385 kts | 311° |
| 2026-05-04 11:33 | 27.23612 | -79.56368 | 22031 ft | 371 kts | 292° |
| 2026-05-04 11:33 | 27.24775 | -79.58953 | 22030 ft | 370 kts | 292° |
| 2026-05-04 11:33 | 27.25925 | -79.61541 | 22027 ft | 371 kts | 292° |
| 2026-05-04 11:34 | 27.27076 | -79.64130 | 22029 ft | 370 kts | 292° |
| 2026-05-04 11:34 | 27.28230 | -79.66720 | 22031 ft | 370 kts | 292° |
| 2026-05-04 11:34 | 27.29385 | -79.69302 | 22031 ft | 370 kts | 292° |
| 2026-05-04 11:34 | 27.30541 | -79.71880 | 22027 ft | 370 kts | 292° |
| 2026-05-04 11:35 | 27.31700 | -79.74463 | 22037 ft | 369 kts | 292° |
| 2026-05-04 11:35 | 27.32858 | -79.77041 | 22034 ft | 370 kts | 292° |
| 2026-05-04 11:35 | 27.34018 | -79.79622 | 22033 ft | 370 kts | 292° |
| 2026-05-04 11:35 | 27.35177 | -79.82200 | 22034 ft | 369 kts | 292° |
| 2026-05-04 11:36 | 27.36335 | -79.84777 | 22039 ft | 369 kts | 292° |
| 2026-05-04 11:36 | 27.37490 | -79.87351 | 22037 ft | 369 kts | 292° |
| 2026-05-04 11:36 | 27.38645 | -79.89926 | 22032 ft | 368 kts | 292° |
| 2026-05-04 11:36 | 27.39799 | -79.92501 | 22033 ft | 368 kts | 292° |
| 2026-05-04 11:37 | 27.40949 | -79.95068 | 22040 ft | 368 kts | 292° |
| 2026-05-04 11:37 | 27.42102 | -79.97642 | 22038 ft | 368 kts | 292° |
| 2026-05-04 11:37 | 27.43251 | -80.00210 | 22041 ft | 368 kts | 292° |
| 2026-05-04 11:37 | 27.44403 | -80.02788 | 22049 ft | 368 kts | 292° |
| 2026-05-04 11:38 | 27.45166 | -80.04495 | 22045 ft | 369 kts | 292° |
| 2026-05-04 11:38 | 27.46319 | -80.07076 | 22042 ft | 369 kts | 292° |
| 2026-05-04 11:38 | 27.47470 | -80.09655 | 22038 ft | 369 kts | 292° |
| 2026-05-04 11:38 | 27.48619 | -80.12229 | 22043 ft | 368 kts | 292° |
| 2026-05-04 11:39 | 27.49767 | -80.14805 | 22044 ft | 368 kts | 292° |
| 2026-05-04 11:39 | 27.50915 | -80.17380 | 22048 ft | 368 kts | 292° |
| 2026-05-04 11:40 | 27.57775 | -80.32810 | 22047 ft | 368 kts | 292° |
| 2026-05-04 11:41 | 27.58933 | -80.35420 | 22046 ft | 368 kts | 292° |
| 2026-05-04 11:41 | 27.60078 | -80.38002 | 22047 ft | 368 kts | 292° |
| 2026-05-04 11:41 | 27.61222 | -80.40585 | 22047 ft | 368 kts | 292° |
| 2026-05-04 11:41 | 27.62349 | -80.43130 | 22044 ft | 368 kts | 292° |
| 2026-05-04 11:42 | 27.63478 | -80.45676 | 22031 ft | 357 kts | 292° |
| 2026-05-04 11:42 | 27.64579 | -80.48162 | 22043 ft | 352 kts | 292° |
| 2026-05-04 11:42 | 27.65672 | -80.50636 | 22054 ft | 353 kts | 292° |
| 2026-05-04 11:42 | 27.66767 | -80.53118 | 22056 ft | 354 kts | 292° |
| 2026-05-04 11:43 | 27.67870 | -80.55621 | 21633 ft | 356 kts | 292° |
| 2026-05-04 11:43 | 27.68969 | -80.58114 | 21077 ft | 355 kts | 292° |
| 2026-05-04 11:43 | 27.70059 | -80.60583 | 20479 ft | 349 kts | 292° |
| 2026-05-04 11:43 | 27.71135 | -80.63022 | 19879 ft | 345 kts | 292° |
| 2026-05-04 11:44 | 27.72196 | -80.65431 | 19276 ft | 341 kts | 292° |
| 2026-05-04 11:44 | 27.73246 | -80.67818 | 18681 ft | 339 kts | 292° |
| 2026-05-04 11:44 | 27.74291 | -80.70196 | 18013 ft | 337 kts | 292° |
| 2026-05-04 11:44 | 27.75329 | -80.72558 | 17373 ft | 334 kts | 293° |
| 2026-05-04 11:45 | 27.76356 | -80.74893 | 16775 ft | 331 kts | 293° |
| 2026-05-04 11:45 | 27.77403 | -80.77213 | 16086 ft | 332 kts | 296° |
| 2026-05-04 11:45 | 27.78646 | -80.79407 | 15481 ft | 331 kts | 301° |
| 2026-05-04 11:45 | 27.79945 | -80.81543 | 14877 ft | 329 kts | 302° |
| 2026-05-04 11:46 | 27.81245 | -80.83661 | 14303 ft | 327 kts | 302° |
| 2026-05-04 11:46 | 27.82536 | -80.85772 | 13722 ft | 326 kts | 302° |
| 2026-05-04 11:46 | 27.83818 | -80.87877 | 13086 ft | 324 kts | 302° |
| 2026-05-04 11:46 | 27.85088 | -80.89972 | 12500 ft | 322 kts | 302° |
| 2026-05-04 11:47 | 27.86342 | -80.92046 | 11969 ft | 318 kts | 302° |
| 2026-05-04 11:47 | 27.87583 | -80.94103 | 11409 ft | 316 kts | 302° |
| 2026-05-04 11:47 | 27.88814 | -80.96146 | 10864 ft | 313 kts | 302° |
| 2026-05-04 11:47 | 27.90032 | -80.98171 | 10387 ft | 309 kts | 302° |
| 2026-05-04 11:48 | 27.91213 | -81.00130 | 10298 ft | 297 kts | 302° |
| 2026-05-04 11:48 | 27.92350 | -81.02019 | 10146 ft | 281 kts | 302° |
| 2026-05-04 11:48 | 27.93585 | -81.03631 | 10020 ft | 268 kts | 318° |
| 2026-05-04 11:48 | 27.95192 | -81.04673 | 9967 ft | 269 kts | 334° |
| 2026-05-04 11:49 | 27.96963 | -81.05437 | 9577 ft | 274 kts | 336° |
| 2026-05-04 11:49 | 27.98746 | -81.06163 | 9208 ft | 271 kts | 336° |
| 2026-05-04 11:49 | 28.00517 | -81.06890 | 8837 ft | 270 kts | 336° |
| 2026-05-04 11:49 | 28.02271 | -81.07621 | 8464 ft | 268 kts | 337° |
| 2026-05-04 11:50 | 28.03997 | -81.08348 | 8091 ft | 267 kts | 337° |
| 2026-05-04 11:50 | 28.05734 | -81.09082 | 7735 ft | 266 kts | 337° |
| 2026-05-04 11:50 | 28.07446 | -81.09868 | 7354 ft | 264 kts | 327° |
| 2026-05-04 11:50 | 28.08794 | -81.11250 | 6987 ft | 261 kts | 304° |
| 2026-05-04 11:51 | 28.09756 | -81.12977 | 6640 ft | 259 kts | 300° |
| 2026-05-04 11:51 | 28.10670 | -81.14720 | 6375 ft | 254 kts | 300° |
| 2026-05-04 11:51 | 28.11561 | -81.16407 | 6217 ft | 245 kts | 300° |
| 2026-05-04 11:51 | 28.12425 | -81.18026 | 6105 ft | 236 kts | 301° |
| 2026-05-04 11:52 | 28.13262 | -81.19587 | 5995 ft | 227 kts | 301° |
| 2026-05-04 11:52 | 28.14291 | -81.20936 | 5740 ft | 226 kts | 319° |
| 2026-05-04 11:52 | 28.15483 | -81.22087 | 5474 ft | 226 kts | 319° |
| 2026-05-04 11:52 | 28.16666 | -81.23262 | 5194 ft | 226 kts | 319° |
| 2026-05-04 11:53 | 28.17849 | -81.24449 | 4902 ft | 227 kts | 319° |
| 2026-05-04 11:53 | 28.19030 | -81.25640 | 4601 ft | 227 kts | 319° |
| 2026-05-04 11:53 | 28.20198 | -81.26821 | 4325 ft | 222 kts | 320° |
| 2026-05-04 11:53 | 28.21486 | -81.27668 | 4008 ft | 212 kts | 351° |
| 2026-05-04 11:55 | 28.30087 | -81.28112 | 2394 ft | 149 kts | 5° |
| 2026-05-04 11:55 | 28.31123 | -81.28133 | 2199 ft | 148 kts | 4° |
| 2026-05-04 11:56 | 28.32150 | -81.28136 | 2005 ft | 147 kts | 5° |
| 2026-05-04 11:56 | 28.33151 | -81.28148 | 1854 ft | 138 kts | 6° |
| 2026-05-04 11:56 | 28.34076 | -81.28155 | 1632 ft | 127 kts | 5° |
| 2026-05-04 11:56 | 28.34949 | -81.28164 | 1454 ft | 122 kts | 4° |
| 2026-05-04 11:57 | 28.35783 | -81.28170 | 1311 ft | 123 kts | 4° |
| 2026-05-04 11:57 | 28.36659 | -81.28178 | 1136 ft | 126 kts | 4° |
| 2026-05-04 11:57 | 28.37530 | -81.28188 | 991 ft | 125 kts | 3° |
| 2026-05-04 11:57 | 28.38395 | -81.28197 | 811 ft | 126 kts | 2° |
| 2026-05-04 11:58 | 28.39284 | -81.28206 | 639 ft | 127 kts | 1° |
| 2026-05-04 11:58 | 28.40147 | -81.28216 | 454 ft | 124 kts | 360° |
| 2026-05-04 11:58 | 28.41021 | -81.28225 | 298 ft | 127 kts | 360° |
| 2026-05-04 11:58 | 28.41888 | -81.28232 | 118 ft | 121 kts | 0° |
| 2026-05-04 11:59 | 28.42648 | -81.28241 | 96 ft | 91 kts | 359° |
| 2026-05-04 11:59 | 28.43033 | -81.28243 | 95 ft | 48 kts | 360° |
| 2026-05-04 11:59 | 28.43341 | -81.28247 | 97 ft | 40 kts | 359° |
| 2026-05-04 11:59 | 28.43529 | -81.28326 | 96 ft | 23 kts | 314° |
| 2026-05-04 12:00 | 28.43666 | -81.28375 | 97 ft | 20 kts | 359° |
| 2026-05-04 12:00 | 28.43800 | -81.28376 | 95 ft | 18 kts | 360° |
| 2026-05-04 12:00 | 28.43875 | -81.28431 | 95 ft | 15 kts | 274° |
| 2026-05-04 12:00 | 28.43875 | -81.28550 | 99 ft | 16 kts | 270° |
| 2026-05-04 12:01 | 28.43874 | -81.28692 | 103 ft | 19 kts | 269° |
| 2026-05-04 12:01 | 28.43872 | -81.28838 | 108 ft | 18 kts | 270° |
| 2026-05-04 12:02 | 28.43553 | -81.29322 | 96 ft | 14 kts | 268° |
| 2026-05-04 12:03 | 28.43552 | -81.29445 | 96 ft | 19 kts | 270° |
| 2026-05-04 12:03 | 28.43551 | -81.29605 | 97 ft | 21 kts | 269° |
| 2026-05-04 12:03 | 28.43550 | -81.29771 | 95 ft | 20 kts | 269° |
| 2026-05-04 12:03 | 28.43529 | -81.29882 | 94 ft | 12 kts | 207° |
| 2026-05-04 12:04 | 28.43435 | -81.29886 | 94 ft | 15 kts | 179° |
| 2026-05-04 12:04 | 28.43328 | -81.29894 | 94 ft | 15 kts | 212° |
| 2026-05-04 12:04 | 28.43285 | -81.29999 | 94 ft | 16 kts | 250° |
| 2026-05-04 12:04 | 28.43297 | -81.30122 | 94 ft | 16 kts | 299° |
| 2026-05-04 12:05 | 28.43352 | -81.30199 | 94 ft | 11 kts | 335° |
| 2026-05-04 12:05 | 28.43411 | -81.30173 | 94 ft | 9 kts | 35° |
| 2026-05-04 12:05 | 28.43445 | -81.30146 | 95 ft | 0 kts | 35° |